createdAt,value
2023-07-21T00:00:58.430Z,100126.16
2023-07-21T00:04:00.257Z,100127.94
2023-07-21T00:07:01.946Z,100133.19
2023-07-21T00:10:10.225Z,100132.34
2023-07-21T00:13:12.579Z,100141.97
2023-07-21T00:16:14.391Z,100141.09
2023-07-21T00:19:16.082Z,100137.56
2023-07-21T00:22:18.106Z,100136.72
2023-07-21T00:25:20.047Z,100134.09
2023-07-21T00:28:21.850Z,100138.47
2023-07-21T00:31:23.587Z,100136.69
2023-07-21T00:34:26.213Z,100123.53
2023-07-21T00:37:27.850Z,100138.47
2023-07-21T00:40:31.553Z,100134.97
2023-07-21T00:43:33.226Z,100134.06
2023-07-21T00:46:35.763Z,100140.22
2023-07-21T00:49:38.336Z,100140.25
2023-07-21T00:52:40.459Z,100132.31
2023-07-21T00:55:43.393Z,100131.44
2023-07-21T00:58:45.201Z,100120.03
2023-07-21T01:01:46.907Z,100126.16
2023-07-21T01:04:48.718Z,100113.00
2023-07-21T01:07:52.056Z,100112.13
2023-07-21T01:10:56.830Z,100118.25
2023-07-21T01:14:03.940Z,100119.13
2023-07-21T01:17:08.818Z,100117.22
2023-07-21T01:20:16.251Z,100117.28
2023-07-21T01:23:20.702Z,100113.88
2023-07-21T01:26:23.668Z,100120.91
2023-07-21T01:29:26.369Z,100121.69
2023-07-21T01:32:28.468Z,100114.66
2023-07-21T01:35:33.987Z,100122.56
2023-07-21T01:38:36.216Z,100122.47
2023-07-21T01:41:38.986Z,100122.41
2023-07-21T01:44:40.965Z,100136.59
2023-07-21T01:47:47.148Z,100132.25
2023-07-21T01:50:49.516Z,100128.69
2023-07-21T01:53:57.167Z,100134.09
2023-07-21T01:57:06.431Z,100139.34
2023-07-21T02:00:13.931Z,100135.84
2023-07-21T02:03:18.033Z,100141.09
2023-07-21T02:06:19.770Z,100139.31
2023-07-21T02:09:21.860Z,100140.19
2023-07-21T02:12:23.520Z,100139.34
2023-07-21T02:15:25.454Z,100141.97
2023-07-21T02:18:27.120Z,100142.75
2023-07-21T02:21:30.416Z,100148.87
2023-07-21T02:24:32.164Z,100146.13
2023-07-21T02:27:34.983Z,100147.88
2023-07-21T02:30:36.778Z,100154.94
2023-07-21T02:33:38.478Z,100161.16
2023-07-21T02:36:40.163Z,100161.09
2023-07-21T02:39:41.827Z,100157.56
2023-07-21T02:42:44.476Z,100156.63
2023-07-21T02:45:50.650Z,100159.22
2023-07-21T02:48:52.409Z,100157.47
2023-07-21T02:51:54.687Z,100154.88
2023-07-21T02:54:56.362Z,100165.41
2023-07-21T02:57:58.135Z,100172.56
2023-07-21T03:01:03.621Z,100165.50
2023-07-21T03:04:05.627Z,100159.25
2023-07-21T03:07:07.418Z,100160.94
2023-07-21T03:10:12.516Z,100158.38
2023-07-21T03:13:14.306Z,100159.44
2023-07-21T03:16:16.513Z,100158.63
2023-07-21T03:19:18.534Z,100148.09
2023-07-21T03:22:20.186Z,100155.09
2023-07-21T03:25:21.876Z,100152.50
2023-07-21T03:28:24.037Z,100163.00
2023-07-21T03:31:25.833Z,100178.72
2023-07-21T03:34:27.956Z,100173.31
2023-07-21T03:37:32.104Z,100168.94
2023-07-21T03:40:33.748Z,100168.03
2023-07-21T03:43:36.736Z,100172.47
2023-07-21T03:46:38.769Z,100171.38
2023-07-21T03:49:40.458Z,100172.31
2023-07-21T03:52:42.519Z,100171.28
2023-07-21T03:55:44.727Z,100177.72
2023-07-21T03:58:46.415Z,100187.38
2023-07-21T04:01:48.239Z,100179.44
2023-07-21T04:04:50.249Z,100182.94
2023-07-21T04:07:52.262Z,100186.25
2023-07-21T04:10:53.931Z,100186.31
2023-07-21T04:13:55.664Z,100192.59
2023-07-21T04:16:57.395Z,100188.28
2023-07-21T04:19:59.287Z,100192.69
2023-07-21T04:23:01.288Z,100179.47
2023-07-21T04:26:04.503Z,100185.56
2023-07-21T04:29:07.849Z,100185.16
2023-07-21T04:32:11.430Z,100171.19
2023-07-21T04:35:13.095Z,100167.84
2023-07-21T04:38:15.549Z,100161.88
2023-07-21T04:41:17.782Z,100155.75
2023-07-21T04:44:19.428Z,100156.66
2023-07-21T04:47:22.492Z,100150.41
2023-07-21T04:50:24.272Z,100152.06
2023-07-21T04:53:25.954Z,100170.41
2023-07-21T04:56:46.574Z,100167.53
2023-07-21T04:59:48.270Z,100164.06
2023-07-21T05:02:50.491Z,100161.50
2023-07-21T05:05:52.210Z,100171.16
2023-07-21T05:08:53.862Z,100169.31
2023-07-21T05:11:55.540Z,100179.78
2023-07-21T05:14:58.996Z,100178.81
2023-07-21T05:18:00.673Z,100178.72
2023-07-21T05:21:02.410Z,100176.00
2023-07-21T05:24:04.409Z,100176.94
2023-07-21T05:27:07.149Z,100184.03
2023-07-21T05:30:12.491Z,100184.16
2023-07-21T05:33:14.309Z,100181.62
2023-07-21T05:36:15.960Z,100181.50
2023-07-21T05:39:17.784Z,100176.16
2023-07-21T05:42:19.457Z,100176.78
2023-07-21T05:45:24.145Z,100169.56
2023-07-21T05:48:26.263Z,100179.03
2023-07-21T05:51:27.949Z,100173.56
2023-07-21T05:54:29.588Z,100189.59
2023-07-21T05:57:31.326Z,100177.34
2023-07-21T06:00:37.859Z,100174.88
2023-07-21T06:03:39.668Z,100178.31
2023-07-21T06:06:41.401Z,100178.84
2023-07-21T06:09:43.099Z,100178.88
2023-07-21T06:12:44.843Z,100173.66
2023-07-21T06:15:46.518Z,100173.56
2023-07-21T06:18:48.192Z,100176.09
2023-07-21T06:21:50.060Z,100165.44
2023-07-21T06:24:51.720Z,100160.16
2023-07-21T06:27:53.455Z,100170.78
2023-07-21T06:30:55.249Z,100165.63
2023-07-21T06:33:56.951Z,100160.38
2023-07-21T06:36:58.872Z,100152.84
2023-07-21T06:40:02.913Z,100155.37
2023-07-21T06:43:04.627Z,100155.22
2023-07-21T06:46:07.170Z,100156.06
2023-07-21T06:49:09.003Z,100156.00
2023-07-21T06:52:10.666Z,100162.13
2023-07-21T06:55:12.335Z,100152.31
2023-07-21T06:58:14.030Z,100149.19
2023-07-21T07:01:16.846Z,100159.41
2023-07-21T07:04:19.004Z,100162.63
2023-07-21T07:07:21.503Z,100169.31
2023-07-21T07:10:23.273Z,100157.97
2023-07-21T07:13:25.124Z,100153.53
2023-07-21T07:16:27.172Z,100147.22
2023-07-21T07:19:29.252Z,100140.03
2023-07-21T07:22:31.203Z,100139.94
2023-07-21T07:25:32.894Z,100137.91
2023-07-21T07:28:34.628Z,100140.41
2023-07-21T07:31:37.920Z,100133.41
2023-07-21T07:34:39.573Z,100143.88
2023-07-21T07:37:41.624Z,100140.47
2023-07-21T07:40:43.832Z,100143.06
2023-07-21T07:43:46.764Z,100134.41
2023-07-21T07:46:48.562Z,100140.81
2023-07-21T07:49:50.233Z,100138.16
2023-07-21T07:52:51.927Z,100145.59
2023-07-21T07:55:53.585Z,100129.06
2023-07-21T07:58:56.485Z,100141.84
2023-07-21T08:01:59.359Z,100147.94
2023-07-21T08:05:01.180Z,100139.16
2023-07-21T08:08:04.119Z,100139.13
2023-07-21T08:11:07.343Z,100149.75
2023-07-21T08:14:09.051Z,100142.84
2023-07-21T08:17:11.317Z,100148.53
2023-07-21T08:20:13.300Z,100143.28
2023-07-21T08:23:27.323Z,100148.03
2023-07-21T08:26:30.761Z,100147.22
2023-07-21T08:29:32.437Z,100114.47
2023-07-21T08:32:34.228Z,100115.44
2023-07-21T08:35:35.962Z,100116.06
2023-07-21T08:38:37.632Z,100126.94
2023-07-21T08:41:45.903Z,100126.38
2023-07-21T08:44:48.126Z,100125.84
2023-07-21T08:47:49.934Z,100113.75
2023-07-21T08:50:55.224Z,100129.72
2023-07-21T08:53:56.916Z,100127.50
2023-07-21T08:56:58.554Z,100119.09
2023-07-21T09:00:00.302Z,100124.63
2023-07-21T09:03:04.228Z,100123.44
2023-07-21T09:06:06.181Z,100119.19
2023-07-21T09:09:07.889Z,100124.56
2023-07-21T09:12:10.746Z,100118.69
2023-07-21T09:15:12.762Z,100113.28
2023-07-21T09:18:14.442Z,100119.75
2023-07-21T09:21:20.481Z,100119.72
2023-07-21T09:24:22.282Z,100121.22
2023-07-21T09:27:24.037Z,100109.50
2023-07-21T09:30:25.938Z,100118.19
2023-07-21T09:33:27.562Z,100101.94
2023-07-21T09:36:29.501Z,100100.53
2023-07-21T09:39:31.315Z,100096.41
2023-07-21T09:42:36.192Z,100109.19
2023-07-21T09:45:42.862Z,100098.47
2023-07-21T09:48:46.056Z,100104.72
2023-07-21T09:51:50.989Z,100096.88
2023-07-21T09:55:14.839Z,100097.41
2023-07-21T09:58:18.682Z,100102.34
2023-07-21T10:01:21.248Z,100100.75
2023-07-21T10:04:24.541Z,100097.09
2023-07-21T10:07:28.204Z,100104.34
2023-07-21T10:10:30.539Z,100094.84
2023-07-21T10:13:36.244Z,100087.06
2023-07-21T10:16:38.053Z,100085.38
2023-07-21T10:19:44.150Z,100079.47
2023-07-21T10:22:56.552Z,100087.72
2023-07-21T10:26:01.189Z,100089.22
2023-07-21T10:29:16.557Z,100074.69
2023-07-21T10:32:21.072Z,100075.09
2023-07-21T10:35:38.964Z,100077.87
2023-07-21T10:38:41.931Z,100084.03
2023-07-21T10:41:45.022Z,100082.47
2023-07-21T10:44:48.852Z,100099.38
2023-07-21T10:47:50.902Z,100089.53
2023-07-21T10:50:55.788Z,100084.44
2023-07-21T10:53:57.818Z,100091.47
2023-07-21T10:57:01.240Z,100097.94
2023-07-21T11:00:03.012Z,100087.66
2023-07-21T11:03:05.783Z,100090.53
2023-07-21T11:06:07.572Z,100083.06
2023-07-21T11:09:13.519Z,100083.53
2023-07-21T11:12:15.368Z,100070.03
2023-07-21T11:15:20.169Z,100070.66
2023-07-21T11:18:23.117Z,100069.69
2023-07-21T11:21:24.985Z,100079.62
2023-07-21T11:24:31.531Z,100082.34
2023-07-21T11:27:34.078Z,100081.78
2023-07-21T11:30:35.745Z,100087.87
2023-07-21T11:33:48.902Z,100082.31
2023-07-21T11:36:56.889Z,100078.97
2023-07-21T11:40:02.359Z,100073.28
2023-07-21T11:43:09.086Z,100068.53
2023-07-21T11:46:10.866Z,100053.09
2023-07-21T11:49:15.583Z,100046.06
2023-07-21T11:52:28.455Z,100046.84
2023-07-21T11:55:30.469Z,100028.19
2023-07-21T11:58:32.101Z,100008.59
2023-07-21T12:01:33.790Z,99996.00
2023-07-21T12:04:37.097Z,99993.16
2023-07-21T12:07:39.250Z,99993.87
2023-07-21T12:10:41.215Z,99997.12
2023-07-21T12:13:42.910Z,99991.31
2023-07-21T12:16:46.838Z,99984.06
2023-07-21T12:19:48.545Z,99983.34
2023-07-21T12:22:50.216Z,99990.19
2023-07-21T12:25:52.005Z,99967.72
2023-07-21T12:28:53.813Z,99970.22
2023-07-21T12:31:55.678Z,99968.25
2023-07-21T12:34:57.511Z,99962.78
2023-07-21T12:37:59.224Z,99968.88
2023-07-21T12:41:03.200Z,99966.09
2023-07-21T12:44:06.668Z,99959.22
2023-07-21T12:47:08.373Z,99949.31
2023-07-21T12:50:10.551Z,99955.72
2023-07-21T12:53:12.244Z,99964.50
2023-07-21T12:56:13.920Z,99969.16
2023-07-21T12:59:15.647Z,99970.87
2023-07-21T13:02:17.377Z,99972.69
2023-07-21T13:05:19.320Z,99967.97
2023-07-21T13:08:21.287Z,99974.62
2023-07-21T13:11:22.957Z,99981.16
2023-07-21T13:14:24.752Z,99989.38
2023-07-21T13:17:27.565Z,99988.56
2023-07-21T13:20:29.407Z,99986.94
2023-07-21T13:23:31.257Z,99977.13
2023-07-21T13:26:34.974Z,99961.03
2023-07-21T13:29:36.775Z,99953.91
2023-07-21T13:32:38.658Z,99953.81
2023-07-21T13:35:40.762Z,99955.81
2023-07-21T13:38:42.709Z,99944.50
2023-07-21T13:41:45.488Z,99940.69
2023-07-21T13:44:48.181Z,99935.62
2023-07-21T13:47:50.492Z,99930.25
2023-07-21T13:50:52.454Z,99924.81
2023-07-21T13:53:54.277Z,99921.03
2023-07-21T13:56:56.192Z,99932.13
2023-07-21T13:59:58.291Z,99925.47
2023-07-21T14:03:00.604Z,99925.59
2023-07-21T14:06:05.334Z,99924.50
2023-07-21T14:09:11.655Z,99922.84
2023-07-21T14:12:13.546Z,99930.00
2023-07-21T14:15:15.874Z,99926.34
2023-07-21T14:18:19.207Z,99917.75
2023-07-21T14:21:23.146Z,99917.16
2023-07-21T14:24:25.315Z,99927.06
2023-07-21T14:27:27.290Z,99910.31
2023-07-21T14:30:31.093Z,99920.31
2023-07-21T14:33:34.338Z,99909.63
2023-07-21T14:36:37.300Z,99899.22
2023-07-21T14:39:39.389Z,99877.66
2023-07-21T14:42:42.472Z,99876.75
2023-07-21T14:45:44.851Z,99868.12
2023-07-21T14:48:46.944Z,99865.69
2023-07-21T14:51:49.300Z,99871.41
2023-07-21T14:54:51.151Z,99870.72
2023-07-21T14:57:52.828Z,99872.06
2023-07-21T15:00:54.808Z,99882.28
2023-07-21T15:03:56.682Z,99889.44
2023-07-21T15:06:58.447Z,99874.62
2023-07-21T15:10:00.177Z,99869.00
2023-07-21T15:13:01.868Z,99852.28
2023-07-21T15:16:03.628Z,99867.53
2023-07-21T15:19:05.360Z,99860.59
2023-07-21T15:22:07.211Z,99856.59
2023-07-21T15:25:09.290Z,99835.88
2023-07-21T15:28:11.102Z,99833.31
2023-07-21T15:31:12.848Z,99832.09
2023-07-21T15:34:14.604Z,99827.53
2023-07-21T15:37:16.284Z,99811.34
2023-07-21T15:40:19.605Z,99805.63
2023-07-21T15:43:21.366Z,99802.59
2023-07-21T15:46:23.221Z,99796.47
2023-07-21T15:49:32.098Z,99797.72
2023-07-21T15:52:42.661Z,99788.31
2023-07-21T15:55:44.568Z,99778.59
2023-07-21T15:58:46.345Z,99763.72
2023-07-21T16:01:48.223Z,99753.66
2023-07-21T16:04:50.911Z,99754.25
2023-07-21T16:07:53.032Z,99738.59
2023-07-21T16:10:54.887Z,99720.72
2023-07-21T16:13:56.747Z,99733.25
2023-07-21T16:16:58.968Z,99730.56
2023-07-21T16:20:02.081Z,99730.19
2023-07-21T16:23:04.938Z,99739.25
2023-07-21T16:26:16.968Z,99744.47
2023-07-21T16:29:19.117Z,99755.91
2023-07-21T16:32:21.230Z,99757.28
2023-07-21T16:35:23.994Z,99750.97
2023-07-21T16:38:26.043Z,99764.75
2023-07-21T16:41:28.312Z,99767.34
2023-07-21T16:44:34.386Z,99763.88
2023-07-21T16:47:36.426Z,99755.66
2023-07-21T16:50:40.536Z,99743.09
2023-07-21T16:53:42.616Z,99726.34
2023-07-21T16:56:44.828Z,99730.53
2023-07-21T16:59:55.869Z,99727.91
2023-07-21T17:02:59.068Z,99722.56
2023-07-21T17:06:01.308Z,99737.50
2023-07-21T17:09:04.052Z,99730.75
2023-07-21T17:12:06.464Z,99722.12
2023-07-21T17:15:10.338Z,99714.28
2023-07-21T17:18:12.348Z,99723.03
2023-07-21T17:21:14.298Z,99711.75
2023-07-21T17:24:16.326Z,99704.78
2023-07-21T17:27:18.479Z,99705.91
2023-07-21T17:30:21.922Z,99710.97
2023-07-21T17:33:23.598Z,99723.47
2023-07-21T17:36:25.560Z,99707.56
2023-07-21T17:39:27.400Z,99692.16
2023-07-21T17:42:29.668Z,99684.12
2023-07-21T17:45:31.891Z,99684.53
2023-07-21T17:48:34.298Z,99675.06
2023-07-21T17:51:35.981Z,99677.75
2023-07-21T17:54:38.125Z,99673.56
2023-07-21T17:57:43.468Z,99688.75
2023-07-21T18:00:45.461Z,99690.41
2023-07-21T18:03:51.023Z,99706.97
2023-07-21T18:06:53.412Z,99720.78
2023-07-21T18:09:55.540Z,99723.81
2023-07-21T18:12:59.036Z,99734.97
2023-07-21T18:16:01.292Z,99744.22
2023-07-21T18:19:03.255Z,99747.50
2023-07-21T18:22:05.334Z,99752.66
2023-07-21T18:25:11.877Z,99750.47
2023-07-21T18:28:14.222Z,99759.66
2023-07-21T18:31:15.987Z,99765.28
2023-07-21T18:34:17.976Z,99766.88
2023-07-21T18:37:20.200Z,99757.34
2023-07-21T18:40:22.529Z,99762.91
2023-07-21T18:43:24.471Z,99777.25
2023-07-21T18:46:26.554Z,99816.13
2023-07-21T18:49:29.443Z,99855.06
2023-07-21T18:52:31.830Z,99877.22
2023-07-21T18:55:33.731Z,99895.81
2023-07-21T18:58:35.804Z,99908.09
2023-07-21T19:01:41.969Z,99915.28
2023-07-21T19:04:44.785Z,99931.25
2023-07-21T19:07:47.351Z,99927.88
2023-07-21T19:10:49.898Z,99932.37
2023-07-21T19:13:53.099Z,99926.25
2023-07-21T19:16:55.089Z,99915.91
2023-07-21T19:19:57.353Z,99904.50
2023-07-21T19:23:00.084Z,99912.59
2023-07-21T19:26:02.301Z,99888.91
2023-07-21T19:29:06.934Z,99875.72
2023-07-21T19:32:11.723Z,99846.84
2023-07-21T19:35:13.679Z,99850.41
2023-07-21T19:38:15.871Z,99846.88
2023-07-21T19:41:18.937Z,99840.72
2023-07-21T19:44:20.861Z,99831.69
2023-07-21T19:47:22.534Z,99847.69
2023-07-21T19:50:24.343Z,99851.84
2023-07-21T19:53:26.297Z,99859.84
2023-07-21T19:56:29.869Z,99860.69
2023-07-21T19:59:31.524Z,99863.37
2023-07-21T20:02:33.568Z,99854.44
2023-07-21T20:05:38.444Z,99864.41
2023-07-21T20:08:40.389Z,99877.63
2023-07-21T20:11:42.436Z,99881.25
2023-07-21T20:14:44.075Z,99867.25
2023-07-21T20:17:45.892Z,99864.63
2023-07-21T20:20:47.555Z,99850.53
2023-07-21T20:23:49.134Z,99855.03
2023-07-21T20:26:50.795Z,99854.22
2023-07-21T20:29:52.513Z,99848.06
2023-07-21T20:32:55.052Z,99853.38
2023-07-21T20:35:56.697Z,99866.56
2023-07-21T20:38:58.239Z,99874.41
2023-07-21T20:42:00.142Z,99870.91
2023-07-21T20:45:01.753Z,99871.66
2023-07-21T20:48:03.606Z,99882.25
2023-07-21T20:51:05.351Z,99875.09
2023-07-21T20:54:06.945Z,99868.91
2023-07-21T20:57:08.565Z,99869.59
2023-07-21T21:00:23.085Z,99863.50
2023-07-21T21:03:24.821Z,99863.50
2023-07-21T21:06:26.608Z,99863.34
2023-07-21T21:09:28.301Z,99874.03
2023-07-21T21:12:29.858Z,99878.56
2023-07-21T21:15:31.432Z,99882.00
2023-07-21T21:18:33.110Z,99901.28
2023-07-21T21:21:34.681Z,99891.69
2023-07-21T21:24:36.330Z,99892.38
2023-07-21T21:27:37.970Z,99895.31
2023-07-21T21:30:39.564Z,99902.28
2023-07-21T21:33:41.136Z,99898.81
2023-07-21T21:36:42.690Z,99896.19
2023-07-21T21:39:44.251Z,99903.31
2023-07-21T21:42:46.643Z,99905.09
2023-07-21T21:45:48.554Z,99908.44
2023-07-21T21:48:50.693Z,99890.97
2023-07-21T21:51:52.257Z,99895.37
2023-07-21T21:54:53.921Z,99907.78
2023-07-21T21:57:55.575Z,99928.69
2023-07-21T22:00:57.214Z,99924.53
2023-07-21T22:03:59.020Z,99915.59
2023-07-21T22:07:02.322Z,99925.34
2023-07-21T22:10:04.280Z,99929.84
2023-07-21T22:13:05.945Z,99921.06
2023-07-21T22:16:07.900Z,99925.59
2023-07-21T22:19:10.044Z,99927.47
2023-07-21T22:22:11.764Z,99929.25
2023-07-21T22:25:13.547Z,99916.09
2023-07-21T22:28:15.338Z,99917.91
2023-07-21T22:31:18.915Z,99928.31
2023-07-21T22:34:20.857Z,99937.09
2023-07-21T22:37:22.685Z,99932.81
2023-07-21T22:40:24.805Z,99931.16
2023-07-21T22:43:26.720Z,99926.78
2023-07-21T22:46:28.806Z,99925.94
2023-07-21T22:49:31.061Z,99928.59
2023-07-21T22:52:32.820Z,99936.50
2023-07-21T22:55:34.778Z,99935.69
2023-07-21T22:58:37.133Z,99944.44
2023-07-21T23:01:39.057Z,99939.22
2023-07-21T23:04:40.904Z,99922.53
2023-07-21T23:07:42.824Z,99914.63
2023-07-21T23:10:44.836Z,99915.53
2023-07-21T23:13:46.779Z,99901.50
2023-07-21T23:16:48.787Z,99896.19
2023-07-21T23:19:50.591Z,99896.25
2023-07-21T23:22:52.402Z,99889.25
2023-07-21T23:25:57.908Z,99892.75
2023-07-21T23:28:59.563Z,99891.91
2023-07-21T23:32:01.203Z,99906.81
2023-07-21T23:35:02.870Z,99898.91
2023-07-21T23:38:04.564Z,99896.31
2023-07-21T23:41:06.553Z,99898.06
2023-07-21T23:44:08.835Z,99900.69
2023-07-21T23:47:10.591Z,99905.09
2023-07-21T23:50:12.258Z,99904.19
2023-07-21T23:53:14.212Z,99895.44
2023-07-21T23:56:15.883Z,99891.94
2023-07-21T23:59:17.973Z,99889.31
